Logo AVAMET
Benvolgut visitant, si us plau, ingressa Recuperar contrasenya
AVAMET paisatges

Inforatge Piles

Dades diàries. Acumulats / Últims 30 dies disponibles

Data Temperatura (°C) Humitat rel. (%) Pressió rel. (hPa) Vent (km/h) Precipitació
Mínima Mitjana Màxima Amplitud
tèrmica
Mínima Mitjana Màxima Mínima Mitjana Màxima Predom. Mitjana Ràfega
màxima
Total
(mm)
Índex-n
Mínima Mitjana Màxima Mínima Mitjana Màxima n
0 a 1
P0 max
mm 5'
Dades mensuals acumulades fins l'últim dia disponible
05/2020 13,8 17,1 21,0 21,2 20,3 25,7 32,2 18,4 33 71 94 1.005 1.018 1.031   5,7 46,7 24,0
Dades anuals acumulades fins l'últim dia disponible
2020 5,9 12,3 21,0 15,8 11,2 19,9 32,2 26,3 19 74 99 1.003 1.022 1.037   6,3 80,5 286,4
Últims 30 dies disponibles
24-05-2020 19,7     21,6     23,6 3,9 76 83 89 1.029 1.030 1.031 NE 4,7 24,1 0,0
23-05-2020 19,1     23,7     29,9 10,8 42 70 84 1.024 1.027 1.029 E 4,7 20,9 0,0
22-05-2020 19,3     24,1     28,3 9,0 51 70 90 1.023 1.024 1.027 NE 3,2 17,7 0,0
21-05-2020 18,1     23,3     31,2 13,1 53 76 94 1.020 1.021 1.023 W 3,2 19,3 0,0
20-05-2020 18,6     22,8     27,3 8,7 48 71 91 1.016 1.018 1.020 W 4,5 19,3 0,0
19-05-2020 16,6     23,0     30,1 13,5 42 62 84 1.017 1.020 1.023 W 5,0 19,3 0,0
18-05-2020 15,9     21,1     26,5 10,6 46 69 85 1.020 1.023 1.024 W 4,7 19,3 0,0
17-05-2020 15,1     18,7     21,6 6,5 67 80 89 1.021 1.023 1.024 W 4,2 22,5 0,0
16-05-2020 14,2     17,0     20,3 6,1 70 85 94 1.017 1.019 1.022 WSW 5,8 35,4 10,2 0,37 2,80
15-05-2020 13,8     17,7     20,8 7,0 57 75 89 1.012 1.015 1.018 W 5,0 22,5 0,0
14-05-2020 13,8     17,2     21,9 8,1 50 71 92 1.005 1.008 1.013 W 6,6 43,5 12,8 0,40 1,40
13-05-2020 15,8     20,1     24,6 8,8 44 61 87 1.006 1.008 1.010 W 8,0 27,4 0,0
12-05-2020 17,3     20,2     23,8 6,5 50 68 88 1.009 1.011 1.014 W 6,0 27,4 0,0
11-05-2020 18,3     22,6     28,7 10,4 34 50 65 1.009 1.011 1.014 WSW 13,5 45,1 0,0
10-05-2020 16,1     20,7     25,5 9,4 33 63 87 1.006 1.008 1.011 WSW 9,8 46,7 1,0
09-05-2020 16,4     19,9     22,8 6,4 72 83 89 1.011 1.014 1.018 W 5,0 22,5 0,0
08-05-2020 17,8     19,8     22,4 4,6 75 84 89 1.017 1.019 1.021 W 5,3 27,4 0,0
07-05-2020 16,7     20,3     24,2 7,5 51 81 90 1.020 1.021 1.022 W 4,2 20,9 0,0
06-05-2020 16,9     20,7     24,6 7,7 70 83 92 1.017 1.019 1.021 NE 3,5 22,5 0,0
05-05-2020 16,2     20,9     26,1 9,9 53 80 94 1.015 1.016 1.018 W 3,2 17,7 0,0
04-05-2020 16,6     19,4     22,3 5,7 72 84 91 1.016 1.018 1.020 NE 3,2 17,7 0,0
03-05-2020 19,2     23,0     27,8 8,6 48 64 90 1.018 1.020 1.022 NE 3,1 17,7 0,0
02-05-2020 21,0     26,2     32,2 11,2 36 51 65 1.018 1.020 1.022 W 9,0 29,0 0,0
01-05-2020 18,2     24,2     30,9 12,7 36 51 64 1.017 1.020 1.021 W 12,4 46,7 0,0
30-04-2020 19,2     22,6     27,6 8,4 37 49 61 1.017 1.018 1.020 O 11,0 46,7 0,0
29-04-2020 15,3     20,9     27,0 11,7 34 48 61 1.017 1.019 1.021 WSW 9,7 33,8 0,0
28-04-2020 14,4     19,4     24,3 9,9 41 57 74 1.015 1.016 1.019 W 8,7 30,6 0,0
27-04-2020 14,2     18,7     24,9 10,7 49 76 94 1.012 1.013 1.015 W 6,1 37,0 1,0
26-04-2020 12,8     16,9     21,2 8,4 64 84 93 1.011 1.013 1.015 W 3,2 20,9 0,0
25-04-2020 13,2     15,8     18,4 5,2 77 83 89 1.011 1.013 1.017 W 3,5 16,1 0,0
Últims 13 mesos disponibles
04/2020 10,2 13,2 19,2 16,1 15,2 19,4 27,6 17,4 48 80 95 1.008 1.018 1.028 W 5,5 46,7 45,6
03/2020 7,3 11,7 17,5 14,7 11,2 18,3 25,3 18,0 44 74 93 1.008 1.019 1.029 W 7,6 80,5 108,6
02/2020 7,3 11,1 15,9 15,5 14,4 20,5 27,8 20,5 37 71 89 1.016 1.027 1.035 W 5,8 43,5 1,0
01/2020 5,9 7,9 11,4 11,2 12,5 15,4 19,6 13,7 54 76 98 1.019 1.029 1.035 W 6,9 80,5 107,2
12/2019 7,4 11,8 19,4 14,7 13,8 18,5 26,7 19,3 46 71 94 1.005 1.021 1.035 W 8,2 75,6 175,0
11/2019 7,3 13,0 21,7 16,2 15,1 19,9 27,4 20,1 47 59 77 1.002 1.014 1.021 W 9,8 75,6 8,4
10/2019 12,2 17,3 21,2 20,7 16,1 24,5 30,9 18,7 45 71 90 1.012 1.020 1.025 WSW 6,6 48,3 77,6
09/2019 14,9 20,9 23,4 24,0 23,2 27,4 34,9 20,0 50 78 92 1.014 1.021 1.027 S 8,7 85,4 72,4
08/2019 18,9 23,3 26,9 26,6 26,6 30,6 38,2 19,3 59 75 85 1.014 1.019 1.024 SSE 8,6 55,6 18,0
07/2019 21,9 23,5 26,2 26,7 26,6 30,3 37,8 15,9 44 74 85 1.009 1.017 1.025 SSE 9,0 51,9 0,2
06/2019 14,2 18,6 22,4 22,6 20,2 26,8 33,0 18,8 41 71 87 1.012 1.019 1.025 SSE 9,0 48,3 0,0
05/2019 10,9 15,4 21,9 19,1 17,7 23,6 31,2 20,3 50 71 84 1.009 1.019 1.028 SSE 8,6 51,9 7,0
04/2019 8,7 12,4 15,3 15,8 14,8 19,6 28,2 19,5 42 70 94 1.003 1.016 1.029 S 10,0 69,3 191,8
Tots els anys disponibles
2019 3,3 15,4 26,9 18,9 10,7 22,9 38,2 34,9 32 69 94 999 1.020 1.037 SSE 8,6 85,4 594,2
Temperatura (°C)
Humitat relativa (%)
Velocitat del vent i ràfega màxima (km/h)
Direcció del vent (°)
Pressió (hPa)
Precipitació (mm)
Nota sobre les dades: s'avisa a l'usuari de la provisionalitat i no oficialitat d'aquestes dades
Logo AVAMET blanc
Web allotjada a Sollutia
Llicència de Creative CommonsLa web d'AVAMET i els seus continguts estan subjectes a una llicència de
Reconeixement - No Comercial - Compartir igual
Últimes estacions:  Chera (Ajuntament soci), Benifaió (Inforatge), Altea - Com. Regants (Soci) - - -